Time;durP1;ratioP1;P1;durP2;ratioP2;P2;SDS_P1;SDS_P2;PMS_P1;PMS_P2;Temp;Humidity;BMP_temperature;BMP_pressure;BME280_temperature;BME280_humidity;BME280_pressure;Samples;Min_cycle;Max_cycle;Signal;HPM_P1;HPM_P2
2021/09/29 00:01:38;;;;;;;;;4.25;0.75;;;;;15.47;57.40;100962.13;5057608;28;69448;-60
2021/09/29 00:04:03;;;;;;;;;1.50;0.75;;;;;15.49;56.96;100956.69;5057850;28;62800;-61
2021/09/29 00:06:29;;;;;;;;;2.00;2.00;;;;;15.50;56.84;100955.69;5057577;28;45363;-60
2021/09/29 00:08:54;;;;;;;;;1.50;1.50;;;;;15.51;57.32;100955.53;5039980;28;53275;-60
2021/09/29 00:11:20;;;;;;;;;1.75;1.75;;;;;15.52;57.20;100961.66;5057246;28;67245;-60
2021/09/29 00:13:45;;;;;;;;;1.00;1.00;;;;;15.54;56.89;100957.84;5058145;28;45287;-60
2021/09/29 00:16:10;;;;;;;;;1.00;1.00;;;;;15.53;57.42;100947.44;5057610;28;63345;-60
2021/09/29 00:18:36;;;;;;;;;1.00;1.00;;;;;15.56;57.43;100945.28;5057515;28;60523;-60
2021/09/29 00:21:01;;;;;;;;;2.00;1.00;;;;;15.58;58.04;100943.31;5057844;28;45323;-60
2021/09/29 00:23:26;;;;;;;;;1.50;1.50;;;;;15.58;57.94;100940.66;5057191;28;64670;-61
2021/09/29 00:25:52;;;;;;;;;1.25;1.25;;;;;15.58;58.58;100939.84;5057408;28;57501;-60
2021/09/29 00:28:17;;;;;;;;;0.00;0.00;;;;;15.58;58.60;100927.41;5057341;28;64389;-61
2021/09/29 00:31:05;;;;;;;;;3.25;1.00;;;;;15.58;58.83;100932.72;5057039;28;66165;-60
2021/09/29 00:33:34;;;;;;;;;1.00;1.00;;;;;15.58;58.81;100937.19;5058021;28;45841;-60
2021/09/29 00:35:59;;;;;;;;;3.25;1.00;;;;;15.60;58.94;100939.69;5056628;28;45363;-61
2021/09/29 00:38:24;;;;;;;;;1.00;1.00;;;;;15.58;58.64;100938.00;5057203;28;65710;-60
2021/09/29 00:40:50;;;;;;;;;2.00;1.00;;;;;15.58;59.02;100938.00;5056754;28;71993;-61
2021/09/29 00:43:15;;;;;;;;;2.00;1.00;;;;;15.57;58.88;100931.06;5038870;28;69040;-60
2021/09/29 00:45:41;;;;;;;;;1.25;0.75;;;;;15.57;58.55;100933.72;5039876;28;45666;-61
2021/09/29 00:48:06;;;;;;;;;1.50;0.50;;;;;15.57;58.75;100924.94;5057804;28;45543;-60
2021/09/29 00:50:31;;;;;;;;;0.00;0.00;;;;;15.58;58.70;100922.13;5056882;28;63665;-60
2021/09/29 00:52:57;;;;;;;;;1.25;0.00;;;;;15.57;58.65;100914.34;5039668;28;45350;-60
2021/09/29 00:55:22;;;;;;;;;0.75;0.75;;;;;15.57;58.41;100912.53;5056822;28;67164;-60
2021/09/29 00:57:48;;;;;;;;;1.00;1.00;;;;;15.57;58.87;100911.72;5057739;28;45221;-60
2021/09/29 01:00:14;;;;;;;;;1.00;1.00;;;;;15.57;58.44;100909.88;5057392;28;45295;-60
2021/09/29 01:02:39;;;;;;;;;2.50;1.25;;;;;15.59;58.30;100912.38;5057396;28;45245;-60
2021/09/29 01:05:05;;;;;;;;;3.00;0.50;;;;;15.58;58.39;100895.63;5023025;28;45559;-60
2021/09/29 01:07:49;;;;;;;;;1.00;1.00;;;;;15.58;58.39;100900.94;5057559;28;45343;-60
2021/09/29 01:10:21;;;;;;;;;1.00;1.00;;;;;15.58;58.31;100902.78;5041169;28;46234;-60
2021/09/29 01:13:27;;;;;;;;;3.50;0.75;;;;;15.58;58.52;100906.22;5023225;28;45770;-60
2021/09/29 01:15:56;;;;;;;;;1.75;0.75;;;;;15.60;58.80;100898.16;4992281;28;45431;-60
2021/09/29 01:18:23;;;;;;;;;1.25;1.25;;;;;15.58;58.76;100900.94;5022316;28;45235;-60
2021/09/29 01:20:54;;;;;;;;;1.50;1.00;;;;;15.60;58.72;100907.91;5039146;28;46509;-60
2021/09/29 01:23:28;;;;;;;;;1.75;1.00;;;;;15.61;58.66;100901.59;5039502;28;45718;-60
2021/09/29 01:26:01;;;;;;;;;2.00;1.00;;;;;15.59;58.13;100896.47;5057079;28;45403;-61
2021/09/29 01:28:30;;;;;;;;;0.75;0.75;;;;;15.58;58.38;100895.63;5039613;28;45395;-60
2021/09/29 01:30:57;;;;;;;;;2.00;0.00;;;;;15.58;58.30;100895.63;5022638;28;46072;-60
2021/09/29 01:33:22;;;;;;;;;0.75;0.75;;;;;15.58;58.66;100898.28;5022322;28;45297;-60
2021/09/29 01:35:48;;;;;;;;;1.00;1.00;;;;;15.57;58.57;100896.63;5021481;28;66320;-60
2021/09/29 01:38:13;;;;;;;;;0.75;0.75;;;;;15.56;58.82;100892.31;5022050;28;45285;-60
2021/09/29 01:40:38;;;;;;;;;2.75;0.75;;;;;15.56;58.70;100892.31;5022285;28;46062;-60
2021/09/29 01:43:04;;;;;;;;;0.75;0.75;;;;;15.55;58.53;100884.56;5056388;28;54954;-59
2021/09/29 01:45:29;;;;;;;;;0.00;0.00;;;;;15.53;58.64;100887.34;5057037;28;45392;-60
2021/09/29 01:47:55;;;;;;;;;0.00;0.00;;;;;15.52;59.19;100885.69;5056093;28;66654;-60
2021/09/29 01:50:23;;;;;;;;;1.50;0.00;;;;;15.53;58.94;100887.34;5037916;28;66058;-60
2021/09/29 01:52:49;;;;;;;;;0.75;0.00;;;;;15.56;58.92;100881.72;5039168;28;45431;-60
2021/09/29 01:55:18;;;;;;;;;1.50;0.75;;;;;15.56;58.81;100881.72;5021630;28;57434;-60
2021/09/29 01:57:44;;;;;;;;;1.00;0.50;;;;;15.56;59.25;100873.78;5039271;28;45239;-60
2021/09/29 02:00:11;;;;;;;;;0.75;0.50;;;;;15.56;59.34;100871.13;5038513;28;46311;-60
2021/09/29 02:02:39;;;;;;;;;1.00;0.00;;;;;15.55;59.29;100869.47;5056493;28;45869;-60
2021/09/29 02:05:05;;;;;;;;;2.00;0.00;;;;;15.57;59.56;100864.03;5038889;28;45305;-60
2021/09/29 02:07:30;;;;;;;;;2.00;0.75;;;;;15.57;59.44;100872.78;5056515;28;45467;-60
2021/09/29 02:09:56;;;;;;;;;1.25;0.00;;;;;15.56;59.49;100862.38;5037387;28;72558;-60
2021/09/29 02:12:21;;;;;;;;;0.50;0.50;;;;;15.55;59.72;100872.13;5055384;28;70143;-60
2021/09/29 02:14:47;;;;;;;;;0.00;0.00;;;;;15.56;59.67;100868.47;5056758;28;45260;-60
2021/09/29 02:17:12;;;;;;;;;0.25;0.25;;;;;15.58;59.78;100879.75;5055602;28;65888;-60
2021/09/29 02:19:37;;;;;;;;;0.50;0.50;;;;;15.57;59.79;100871.97;5055489;28;71277;-60
2021/09/29 02:22:03;;;;;;;;;0.50;0.50;;;;;15.56;60.32;100865.84;5056246;28;46583;-60
2021/09/29 02:24:28;;;;;;;;;0.00;0.00;;;;;15.55;60.38;100860.72;5038609;28;45463;-60
2021/09/29 02:26:54;;;;;;;;;0.00;0.00;;;;;15.54;60.49;100862.53;5055774;28;61022;-60
2021/09/29 02:29:19;;;;;;;;;0.00;0.00;;;;;15.54;60.63;100862.53;5056715;28;64738;-60
2021/09/29 02:31:45;;;;;;;;;1.25;0.00;;;;;15.55;60.35;100863.38;5059748;28;45394;-60
2021/09/29 02:34:10;;;;;;;;;0.00;0.00;;;;;15.56;61.00;100859.72;5042017;28;45482;-60
2021/09/29 02:36:35;;;;;;;;;1.00;0.00;;;;;15.55;61.19;100858.88;5059627;28;45302;-60
2021/09/29 02:39:01;;;;;;;;;2.75;0.00;;;;;15.55;61.47;100869.47;5041603;28;46094;-60
2021/09/29 02:41:26;;;;;;;;;2.25;0.50;;;;;15.56;61.31;100876.44;5059666;28;45409;-60
2021/09/29 02:43:52;;;;;;;;;0.25;0.25;;;;;15.56;61.62;100880.91;5059675;28;45384;-60
2021/09/29 02:46:17;;;;;;;;;2.50;0.75;;;;;15.56;61.89;100875.63;5041518;28;45602;-60
2021/09/29 02:48:42;;;;;;;;;0.75;0.00;;;;;15.56;62.08;100870.31;5058770;28;69669;-60
2021/09/29 02:51:08;;;;;;;;;0.75;0.00;;;;;15.54;61.96;100862.53;5058510;28;66921;-60
2021/09/29 02:53:33;;;;;;;;;1.00;1.00;;;;;15.55;62.26;100861.53;5058769;28;65304;-60
2021/09/29 02:55:59;;;;;;;;;1.50;1.25;;;;;15.57;62.44;100864.84;5058859;28;60242;-60
2021/09/29 02:58:25;;;;;;;;;0.00;0.00;;;;;15.57;62.26;100872.78;5059305;28;45646;-60
2021/09/29 03:00:51;;;;;;;;;0.75;0.00;;;;;15.58;62.35;100868.34;5059417;28;45369;-60
2021/09/29 03:03:17;;;;;;;;;0.00;0.00;;;;;15.59;62.58;100880.59;5059573;28;45166;-60
2021/09/29 03:05:43;;;;;;;;;0.75;0.75;;;;;15.60;62.85;100868.16;5058173;28;45515;-61
2021/09/29 03:08:09;;;;;;;;;0.00;0.00;;;;;15.60;62.75;100870.81;5059140;28;45456;-60
2021/09/29 03:10:35;;;;;;;;;0.00;0.00;;;;;15.58;63.11;100878.94;5058457;28;64624;-60
2021/09/29 03:13:01;;;;;;;;;1.00;0.25;;;;;15.60;62.99;100878.75;5059386;28;45466;-60
2021/09/29 03:15:26;;;;;;;;;2.00;0.00;;;;;15.57;63.47;100879.91;5058750;28;58733;-60
2021/09/29 03:17:51;;;;;;;;;0.00;0.00;;;;;15.58;63.37;100882.41;5058327;28;69837;-60
2021/09/29 03:20:17;;;;;;;;;2.00;0.75;;;;;15.57;63.79;100882.56;5040677;28;57720;-60
2021/09/29 03:22:42;;;;;;;;;1.00;1.00;;;;;15.59;63.64;100880.59;5057430;28;45423;-60
2021/09/29 03:25:08;;;;;;;;;1.50;0.00;;;;;15.60;64.11;100874.31;5058086;28;45411;-60
2021/09/29 03:27:33;;;;;;;;;1.00;0.00;;;;;15.64;63.89;100877.44;5057860;28;47011;-60
2021/09/29 03:29:58;;;;;;;;;0.00;0.00;;;;;15.65;63.91;100879.91;5056997;28;66886;-60
2021/09/29 03:32:24;;;;;;;;;1.00;1.00;;;;;15.66;63.94;100867.53;5057186;28;61337;-60
2021/09/29 03:34:49;;;;;;;;;0.50;0.25;;;;;15.69;63.84;100875.16;5039215;28;58744;-60
2021/09/29 03:37:15;;;;;;;;;0.75;0.75;;;;;15.70;64.10;100876.81;5056982;28;66507;-60
2021/09/29 03:39:40;;;;;;;;;2.00;0.00;;;;;15.72;64.30;100865.03;5038179;28;59952;-61
2021/09/29 03:42:05;;;;;;;;;0.75;0.75;;;;;15.75;63.93;100863.91;5057839;28;45610;-60
2021/09/29 03:44:31;;;;;;;;;0.75;0.00;;;;;15.75;64.18;100866.56;5057855;28;45659;-60
2021/09/29 03:46:56;;;;;;;;;0.75;0.75;;;;;15.76;63.91;100854.13;5057060;28;59084;-60
2021/09/29 03:49:22;;;;;;;;;2.50;1.75;;;;;15.78;64.47;100863.59;5057801;28;45264;-60
2021/09/29 03:51:47;;;;;;;;;1.00;0.75;;;;;15.77;64.17;100867.22;5056985;28;56044;-60
2021/09/29 03:54:12;;;;;;;;;1.00;1.00;;;;;15.80;64.24;100871.34;5056689;28;64225;-60
2021/09/29 03:56:38;;;;;;;;;1.50;0.00;;;;;15.79;64.33;100859.94;5056475;28;69994;-60
2021/09/29 03:59:03;;;;;;;;;0.25;0.25;;;;;15.81;64.06;100873.00;5056593;28;65277;-60
2021/09/29 04:01:28;;;;;;;;;1.00;0.00;;;;;15.80;64.21;100861.59;5039391;28;45221;-60
2021/09/29 04:03:54;;;;;;;;;0.75;0.00;;;;;15.80;64.33;100866.06;5054597;28;60996;-60
2021/09/29 04:06:19;;;;;;;;;1.00;0.25;;;;;15.80;64.07;100874.84;5037795;28;69528;-60
2021/09/29 04:08:44;;;;;;;;;0.00;0.00;;;;;15.80;64.22;100882.81;5056584;28;62983;-60
2021/09/29 04:11:11;;;;;;;;;1.25;1.00;;;;;15.81;64.55;100867.72;5056407;28;62098;-60
2021/09/29 04:13:36;;;;;;;;;0.00;0.00;;;;;15.82;64.58;100880.81;5057242;28;45431;-60
2021/09/29 04:16:02;;;;;;;;;2.00;1.00;;;;;15.83;64.07;100879.84;5056805;28;45355;-60
2021/09/29 04:18:27;;;;;;;;;1.00;1.00;;;;;15.83;64.73;100877.19;5057077;28;45407;-60
2021/09/29 04:20:52;;;;;;;;;1.50;1.00;;;;;15.84;64.84;100870.03;5038130;28;61789;-60
2021/09/29 04:23:18;;;;;;;;;2.00;1.00;;;;;15.84;64.93;100867.41;5016719;28;1137893;-60
2021/09/29 04:25:43;;;;;;;;;0.50;0.50;;;;;15.84;65.20;100878.00;5057343;28;63976;-60
2021/09/29 04:28:09;;;;;;;;;2.50;1.00;;;;;15.83;65.41;100871.88;5057997;28;45455;-59
2021/09/29 04:30:34;;;;;;;;;2.50;1.00;;;;;15.84;65.31;100889.44;5058154;28;45389;-60
2021/09/29 04:33:00;;;;;;;;;0.50;0.00;;;;;15.84;65.09;100878.84;5057654;28;51691;-60
2021/09/29 04:35:26;;;;;;;;;0.25;0.00;;;;;15.83;65.16;100882.47;5057915;28;46166;-60
2021/09/29 04:37:51;;;;;;;;;1.25;1.00;;;;;15.83;65.09;100885.13;5057730;28;45873;-61
2021/09/29 04:40:17;;;;;;;;;0.75;0.25;;;;;15.85;65.21;100891.09;5057244;28;62021;-60
2021/09/29 04:42:42;;;;;;;;;1.25;1.00;;;;;15.86;65.34;100889.25;5057130;28;57471;-60
2021/09/29 04:45:08;;;;;;;;;1.75;0.75;;;;;15.87;65.28;100890.94;5039780;28;45443;-60
2021/09/29 04:47:33;;;;;;;;;0.00;0.00;;;;;15.86;65.41;100892.78;5057669;28;45245;-60
2021/09/29 04:49:59;;;;;;;;;2.50;0.00;;;;;15.87;65.38;100893.59;5057056;28;58329;-60
2021/09/29 04:52:25;;;;;;;;;0.75;0.75;;;;;15.86;65.73;100881.31;5056646;28;45220;-61
2021/09/29 04:54:50;;;;;;;;;1.00;0.50;;;;;15.86;65.41;100886.63;5057432;28;45256;-60
2021/09/29 04:57:16;;;;;;;;;0.25;0.25;;;;;15.83;65.80;100890.44;5056360;28;45713;-60
2021/09/29 04:59:41;;;;;;;;;2.00;0.75;;;;;15.83;65.86;100892.22;5039587;28;45744;-60
2021/09/29 05:02:07;;;;;;;;;0.50;0.50;;;;;15.83;65.54;100893.06;5038637;28;65072;-60
2021/09/29 05:04:33;;;;;;;;;2.00;1.00;;;;;15.82;66.22;100891.41;5039193;28;48892;-60
2021/09/29 05:06:59;;;;;;;;;1.00;1.00;;;;;15.82;66.11;100890.56;5056532;28;61925;-60
2021/09/29 05:09:24;;;;;;;;;1.00;1.00;;;;;15.81;66.31;100902.16;5057406;28;45515;-60
2021/09/29 05:11:58;;;;;;;;;1.00;1.00;;;;;15.81;66.77;100899.50;5039385;28;45390;-60
2021/09/29 05:14:24;;;;;;;;;1.75;1.00;;;;;15.79;67.13;100912.94;5039474;28;45324;-61
2021/09/29 05:16:49;;;;;;;;;1.00;1.00;;;;;15.78;67.13;100921.88;5056161;28;71427;-61
2021/09/29 05:19:14;;;;;;;;;3.00;1.00;;;;;15.76;67.42;100921.22;5038228;28;66871;-60
2021/09/29 05:21:40;;;;;;;;;2.00;2.00;;;;;15.75;67.52;100911.59;5056521;28;56107;-60
2021/09/29 05:24:05;;;;;;;;;1.00;0.00;;;;;15.74;66.84;100936.44;5056022;28;67781;-60
2021/09/29 05:26:31;;;;;;;;;1.00;0.00;;;;;15.70;67.38;100937.72;5056770;28;45316;-60
2021/09/29 05:28:56;;;;;;;;;0.00;0.00;;;;;15.68;67.31;100942.38;5038351;28;55781;-60
2021/09/29 05:31:22;;;;;;;;;0.00;0.00;;;;;15.64;67.71;100957.72;5057005;28;45209;-60
2021/09/29 05:33:47;;;;;;;;;0.75;0.00;;;;;15.61;68.07;100960.72;5056059;28;70255;-60
2021/09/29 05:36:13;;;;;;;;;5.25;2.00;;;;;15.59;67.80;100946.81;5055786;28;54252;-60
2021/09/29 05:38:38;;;;;;;;;0.25;0.00;;;;;15.55;67.30;100962.16;5057049;28;45227;-60
2021/09/29 05:41:03;;;;;;;;;2.00;0.00;;;;;15.52;67.83;100965.13;5056605;28;52492;-60
2021/09/29 05:43:29;;;;;;;;;0.75;0.75;;;;;15.48;67.85;100963.78;5056557;28;46159;-60
2021/09/29 05:45:54;;;;;;;;;2.00;0.00;;;;;15.46;68.10;100967.59;5055809;28;65668;-60
2021/09/29 05:48:20;;;;;;;;;0.00;0.00;;;;;15.42;68.27;100980.31;5056822;28;45515;-60
2021/09/29 05:50:45;;;;;;;;;0.75;0.00;;;;;15.38;67.73;100977.16;5056549;28;45367;-60
2021/09/29 05:53:11;;;;;;;;;0.00;0.00;;;;;15.36;67.79;100984.41;5056230;28;45371;-60
2021/09/29 05:55:36;;;;;;;;;0.00;0.00;;;;;15.33;67.36;100991.84;5056506;28;45409;-60
2021/09/29 05:58:02;;;;;;;;;0.00;0.00;;;;;15.28;67.32;100994.94;5056059;28;58337;-60
2021/09/29 06:00:27;;;;;;;;;0.25;0.00;;;;;15.25;67.40;101001.41;5055216;28;45409;-60
2021/09/29 06:02:52;;;;;;;;;0.00;0.00;;;;;15.22;67.56;101001.72;5055576;28;65246;-60
2021/09/29 06:05:21;;;;;;;;;1.00;0.00;;;;;15.18;67.08;100996.88;5056333;28;45375;-60
2021/09/29 06:07:46;;;;;;;;;0.00;0.00;;;;;15.15;67.15;101005.97;5055321;28;45285;-60
2021/09/29 06:10:12;;;;;;;;;0.75;0.00;;;;;15.11;67.35;101010.72;5055489;28;66166;-60
2021/09/29 06:12:37;;;;;;;;;0.00;0.00;;;;;15.08;67.13;101026.94;5038300;28;45363;-60
2021/09/29 06:15:03;;;;;;;;;0.00;0.00;;;;;15.07;67.50;101030.56;5056295;28;45330;-60
2021/09/29 06:17:41;;;;;;;;;0.25;0.00;;;;;15.05;67.63;101021.09;5056176;28;45288;-60
2021/09/29 06:20:06;;;;;;;;;0.00;0.00;;;;;15.02;67.32;101040.78;5040144;28;45562;-60
2021/09/29 06:22:32;;;;;;;;;0.00;0.00;;;;;15.00;67.30;101048.03;5055883;28;45326;-60
2021/09/29 06:24:57;;;;;;;;;0.00;0.00;;;;;14.97;67.65;101045.69;5056220;28;45319;-60
2021/09/29 06:27:23;;;;;;;;;0.00;0.00;;;;;14.97;67.43;101051.78;5055402;28;57802;-60
2021/09/29 06:29:48;;;;;;;;;0.00;0.00;;;;;14.96;67.01;101060.72;5055217;28;57041;-60
2021/09/29 06:32:13;;;;;;;;;0.00;0.00;;;;;14.95;67.42;101066.19;5037940;28;46332;-60
2021/09/29 06:34:39;;;;;;;;;0.25;0.00;;;;;14.94;67.03;101065.31;5037512;28;59879;-60
2021/09/29 06:37:04;;;;;;;;;0.50;0.00;;;;;14.92;67.24;101079.72;5056231;28;45601;-60
2021/09/29 06:39:30;;;;;;;;;0.00;0.00;;;;;14.91;67.43;101085.97;5037960;28;49568;-60
2021/09/29 06:41:55;;;;;;;;;0.75;0.00;;;;;14.90;67.87;101092.25;5037729;28;45344;-60
2021/09/29 06:44:20;;;;;;;;;0.00;0.00;;;;;14.89;67.30;101095.88;5055896;28;45315;-60
2021/09/29 06:46:46;;;;;;;;;0.25;0.00;;;;;14.88;67.56;101102.16;5056164;28;45230;-60
2021/09/29 06:49:11;;;;;;;;;0.00;0.00;;;;;14.87;67.79;101114.53;5055966;28;45623;-60
2021/09/29 06:51:37;;;;;;;;;1.25;0.00;;;;;14.88;67.95;101118.03;5037408;28;51490;-60
2021/09/29 06:54:02;;;;;;;;;0.00;0.00;;;;;14.89;68.09;101128.44;5054901;28;70054;-60
2021/09/29 06:56:27;;;;;;;;;1.50;0.50;;;;;14.89;67.59;101122.34;5055208;28;59870;-60
2021/09/29 06:58:53;;;;;;;;;0.00;0.00;;;;;14.88;67.91;101126.78;5055265;28;60405;-60
2021/09/29 07:01:19;;;;;;;;;0.50;0.00;;;;;14.88;68.07;101126.78;5055730;28;45229;-60
2021/09/29 07:03:44;;;;;;;;;0.00;0.00;;;;;14.89;67.80;101128.44;5055569;28;45852;-60
2021/09/29 07:06:10;;;;;;;;;0.00;0.00;;;;;14.89;67.78;101117.88;5037332;28;52055;-60
2021/09/29 07:08:35;;;;;;;;;0.00;0.00;;;;;14.92;67.82;101129.97;5055928;28;45367;-60
2021/09/29 07:11:01;;;;;;;;;0.00;0.00;;;;;14.92;67.79;101133.44;5054764;28;67985;-60
2021/09/29 07:13:26;;;;;;;;;0.00;0.00;;;;;14.92;68.39;101138.72;5055717;28;45475;-60
2021/09/29 07:15:52;;;;;;;;;1.00;0.00;;;;;14.92;68.31;101141.38;5038721;28;62256;-60
2021/09/29 07:18:17;;;;;;;;;0.00;0.00;;;;;14.94;67.78;101141.25;5041079;28;45376;-60
2021/09/29 07:20:43;;;;;;;;;0.75;0.00;;;;;14.95;67.95;101151.66;5058773;28;46139;-60
2021/09/29 07:23:09;;;;;;;;;0.00;0.00;;;;;14.96;67.82;101152.50;5058649;28;45442;-60
2021/09/29 07:25:35;;;;;;;;;0.00;0.00;;;;;15.00;67.28;101159.19;5058992;28;45386;-60
2021/09/29 07:28:01;;;;;;;;;0.00;0.00;;;;;15.02;67.32;101148.41;5059070;28;45439;-60
2021/09/29 07:30:26;;;;;;;;;0.00;0.00;;;;;15.07;66.97;101149.66;5040919;28;47997;-60
2021/09/29 07:32:52;;;;;;;;;3.50;3.25;;;;;15.13;67.06;101159.63;5040976;28;45358;-60
2021/09/29 07:35:18;;;;;;;;;0.00;0.00;;;;;15.21;67.44;101161.53;5059031;28;45438;-60
2021/09/29 07:37:44;;;;;;;;;1.25;0.00;;;;;15.30;66.72;101162.41;5059035;28;45622;-60
2021/09/29 07:40:09;;;;;;;;;1.75;0.00;;;;;15.41;66.86;101170.13;5058711;28;48171;-60
2021/09/29 07:42:36;;;;;;;;;1.00;1.00;;;;;15.52;66.31;101171.72;5058649;28;45237;-60
2021/09/29 07:45:02;;;;;;;;;0.75;0.00;;;;;15.62;65.65;101176.94;5036679;28;45581;-60
2021/09/29 07:47:28;;;;;;;;;0.00;0.00;;;;;15.73;65.53;101178.50;5057516;28;45518;-61
2021/09/29 07:49:53;;;;;;;;;0.00;0.00;;;;;15.87;64.43;101179.78;5054976;28;46661;-61
2021/09/29 07:52:18;;;;;;;;;0.00;0.00;;;;;16.03;64.25;101189.66;5038893;28;45464;-60
2021/09/29 07:54:44;;;;;;;;;0.00;0.00;;;;;16.22;63.75;101193.91;5057253;28;45302;-60
2021/09/29 07:57:09;;;;;;;;;1.25;0.00;;;;;16.41;63.08;101195.53;5039342;28;45627;-60
2021/09/29 07:59:35;;;;;;;;;0.50;0.50;;;;;16.61;62.47;101195.25;5056489;28;56531;-60
2021/09/29 08:02:00;;;;;;;;;1.00;0.00;;;;;16.80;62.29;101201.31;5055888;28;71739;-60
2021/09/29 08:04:25;;;;;;;;;0.00;0.00;;;;;16.98;61.64;101202.03;5038441;28;45422;-60
2021/09/29 08:06:51;;;;;;;;;2.00;0.00;;;;;17.15;60.63;101202.09;5038631;28;46743;-60
2021/09/29 08:09:16;;;;;;;;;0.00;0.00;;;;;17.30;60.26;101210.22;5056758;28;45320;-61
2021/09/29 08:11:42;;;;;;;;;1.00;0.00;;;;;17.43;59.76;101210.59;5055644;28;45293;-60
2021/09/29 08:14:07;;;;;;;;;0.25;0.00;;;;;17.61;59.11;101207.75;5056774;28;45549;-60
2021/09/29 08:16:33;;;;;;;;;2.50;2.50;;;;;17.78;58.86;101213.91;5038679;28;45342;-61
2021/09/29 08:18:58;;;;;;;;;0.00;0.00;;;;;17.94;58.37;101218.41;5038407;28;47925;-61
2021/09/29 08:21:29;;;;;;;;;0.75;0.75;;;;;18.11;58.19;101218.38;5055757;28;65078;-61
2021/09/29 08:24:00;;;;;;;;;1.00;0.00;;;;;18.24;57.58;101225.84;5055645;28;45524;-61
2021/09/29 08:29:18;;;;;;;;;0.00;0.00;;;;;18.49;56.44;101237.25;5056057;28;45597;-60
2021/09/29 08:34:16;;;;;;;;;0.25;0.00;;;;;18.78;55.18;101243.78;5056351;28;45577;-61
2021/09/29 08:42:31;;;;;;;;;1.00;0.00;;;;;19.32;53.81;101257.38;5056229;28;45499;-60
2021/09/29 08:45:01;;;;;;;;;0.00;0.00;;;;;19.40;53.09;101263.47;5025656;28;45407;-60
2021/09/29 08:47:38;;;;;;;;;1.00;0.00;;;;;19.50;52.39;101267.75;5039167;28;45666;-61
2021/09/29 09:16:33;;;;;;;;;1.00;0.00;;;;;19.93;47.60;101300.09;5056173;28;45379;-61
2021/09/29 09:18:59;;;;;;;;;1.75;0.00;;;;;19.84;48.16;101304.66;5037315;28;46131;-61
2021/09/29 09:21:25;;;;;;;;;0.00;0.00;;;;;19.75;47.37;101311.03;5055173;28;45492;-60
2021/09/29 09:23:50;;;;;;;;;0.25;0.00;;;;;19.66;47.33;101309.44;5055239;28;45508;-60
2021/09/29 09:26:18;;;;;;;;;0.25;0.00;;;;;19.67;47.44;101311.09;5055084;28;59455;-60
2021/09/29 09:28:44;;;;;;;;;1.00;0.00;;;;;19.73;47.87;101319.22;5055710;28;45475;-61
2021/09/29 09:31:13;;;;;;;;;1.00;0.00;;;;;19.82;46.29;101317.31;5055350;28;45455;-61
2021/09/29 09:33:45;;;;;;;;;0.00;0.00;;;;;19.87;46.67;101319.44;5052312;28;45387;-60
2021/09/29 09:36:11;;;;;;;;;0.00;0.00;;;;;19.95;45.72;101324.75;5035011;28;45704;-61
2021/09/29 09:38:41;;;;;;;;;0.00;0.00;;;;;20.01;45.56;101323.19;5036481;28;54812;-60
2021/09/29 09:41:06;;;;;;;;;0.00;0.00;;;;;20.08;45.67;101323.31;5053992;28;48636;-61
2021/09/29 09:43:32;;;;;;;;;3.25;0.00;;;;;20.15;45.16;101330.41;5036780;28;45383;-61
2021/09/29 09:45:58;;;;;;;;;0.00;0.00;;;;;20.26;45.23;101326.47;5055546;28;45725;-61
2021/09/29 09:48:24;;;;;;;;;0.75;0.75;;;;;20.35;44.33;101329.91;5054106;28;45255;-61
2021/09/29 09:50:53;;;;;;;;;0.00;0.00;;;;;20.30;43.55;101333.13;5055072;28;45264;-61
2021/09/29 09:53:19;;;;;;;;;1.75;0.00;;;;;20.27;43.88;101333.47;5037323;28;45653;-60
2021/09/29 09:55:44;;;;;;;;;3.25;1.00;;;;;20.25;44.51;101346.16;5054892;28;45441;-60
2021/09/29 09:58:10;;;;;;;;;0.50;0.50;;;;;20.20;43.85;101348.53;5055168;28;45505;-61
2021/09/29 10:00:36;;;;;;;;;0.50;0.00;;;;;20.17;43.29;101347.06;5054938;28;45395;-61
2021/09/29 10:03:02;;;;;;;;;2.50;0.50;;;;;20.15;43.28;101349.09;5037228;28;45410;-60
2021/09/29 10:05:30;;;;;;;;;2.00;1.00;;;;;20.20;43.18;101353.88;5054681;28;45399;-60
2021/09/29 10:07:55;;;;;;;;;1.00;1.00;;;;;20.27;43.08;101349.47;5054940;28;45439;-61
2021/09/29 10:27:18;;;;;;;;;4.00;0.25;;;;;21.60;41.03;101364.03;5051068;28;45379;-61
2021/09/29 10:29:48;;;;;;;;;1.25;0.25;;;;;21.68;39.38;101381.81;5052965;28;45534;-61
2021/09/29 10:32:23;;;;;;;;;2.00;1.00;;;;;21.57;38.90;101381.25;5052449;28;46460;-61
2021/09/29 10:35:23;;;;;;;;;1.00;1.00;;;;;21.25;39.21;101385.19;5052799;28;46131;-61
2021/09/29 10:40:55;;;;;;;;;1.25;0.00;;;;;20.17;39.85;101407.59;5039024;28;45353;-61
2021/09/29 10:43:51;;;;;;;;;0.00;0.00;;;;;19.65;42.44;101414.41;5039281;28;47128;-60
2021/09/29 10:50:01;;;;;;;;;0.00;0.00;;;;;19.00;44.15;101411.00;5055026;28;45402;-60
2021/09/29 11:30:37;;;;;;;;;2.00;0.50;;;;;16.54;57.93;101499.31;5057564;28;45501;-61
2021/09/29 11:33:09;;;;;;;;;1.50;0.50;;;;;16.82;57.19;101496.56;5057513;28;45541;-60
2021/09/29 12:08:46;;;;;;;;;1.00;0.00;;;;;19.11;48.75;101499.34;5056933;28;45308;-60
2021/09/29 12:11:17;;;;;;;;;0.00;0.00;;;;;19.03;48.60;101507.38;5056464;28;46698;-60
2021/09/29 12:16:24;;;;;;;;;0.00;0.00;;;;;18.81;48.02;101511.53;5054828;28;45475;-61
2021/09/29 12:18:55;;;;;;;;;0.00;0.00;;;;;18.70;47.67;101510.00;5054896;28;45627;-61
2021/09/29 12:21:35;;;;;;;;;2.00;0.00;;;;;18.60;47.20;101509.34;5053454;28;46750;-60
2021/09/29 12:24:00;;;;;;;;;0.00;0.00;;;;;18.50;47.12;101513.00;5021229;28;45601;-60
2021/09/29 12:26:28;;;;;;;;;0.00;0.00;;;;;18.39;46.57;101516.00;5054245;28;46279;-61
2021/09/29 12:29:32;;;;;;;;;0.00;0.00;;;;;18.31;46.04;101507.97;5037203;28;45641;-60
2021/09/29 12:34:25;;;;;;;;;0.00;0.00;;;;;18.20;48.06;101507.28;5055109;28;45905;-60
2021/09/29 12:36:51;;;;;;;;;1.25;0.00;;;;;18.19;47.34;101510.94;5038685;28;45844;-61
2021/09/29 12:39:25;;;;;;;;;0.25;0.00;;;;;18.18;46.39;101519.09;5054655;28;63680;-60
2021/09/29 12:41:52;;;;;;;;;0.00;0.00;;;;;18.16;47.28;101513.13;5056419;28;45588;-61
2021/09/29 12:44:18;;;;;;;;;0.00;0.00;;;;;18.16;46.49;101518.44;5055998;28;45300;-60
2021/09/29 12:47:02;;;;;;;;;0.50;0.00;;;;;18.15;46.97;101525.56;5056362;28;45474;-61
2021/09/29 12:49:28;;;;;;;;;0.00;0.00;;;;;18.13;46.81;101526.72;5039355;28;45486;-61
2021/09/29 12:51:59;;;;;;;;;0.00;0.00;;;;;18.10;47.25;101527.88;5056154;28;46104;-61
2021/09/29 12:54:25;;;;;;;;;1.00;0.00;;;;;18.11;46.95;101534.84;5056190;28;45777;-61
2021/09/29 12:56:51;;;;;;;;;0.50;0.00;;;;;18.11;46.59;101526.06;5055248;28;45234;-61
2021/09/29 12:59:16;;;;;;;;;2.25;0.50;;;;;18.12;46.05;101525.88;5055054;28;62603;-61
2021/09/29 13:01:41;;;;;;;;;1.00;1.00;;;;;18.10;46.21;101530.53;5055317;28;57377;-60
2021/09/29 13:04:07;;;;;;;;;1.00;0.25;;;;;18.08;46.29;101541.34;5054859;28;68036;-61
2021/09/29 13:06:32;;;;;;;;;0.00;0.00;;;;;18.07;45.25;101530.84;5055870;28;45682;-60
2021/09/29 13:08:57;;;;;;;;;1.00;1.00;;;;;18.05;45.42;101546.97;5055418;28;53389;-60
2021/09/29 13:11:23;;;;;;;;;0.00;0.00;;;;;18.05;44.53;101536.34;5054721;28;66883;-60
2021/09/29 13:13:48;;;;;;;;;0.50;0.50;;;;;18.04;44.44;101537.34;5035658;28;62765;-61
2021/09/29 13:16:14;;;;;;;;;0.00;0.00;;;;;18.02;44.27;101552.63;5055120;28;50866;-60
2021/09/29 13:18:47;;;;;;;;;0.50;0.00;;;;;17.98;43.98;101551.25;5055774;28;45475;-60
2021/09/29 13:23:58;;;;;;;;;2.00;0.00;;;;;17.93;44.12;101559.72;5055359;28;45506;-61
2021/09/29 13:37:00;;;;;;;;;0.00;0.00;;;;;17.72;44.84;101594.66;5039807;28;45438;-60
2021/09/29 13:39:26;;;;;;;;;1.00;0.00;;;;;17.72;44.33;101599.97;5054538;28;61443;-61
2021/09/29 13:41:53;;;;;;;;;0.00;0.00;;;;;17.71;44.26;101600.97;5037166;28;45329;-60
2021/09/29 13:44:18;;;;;;;;;0.00;0.00;;;;;17.71;44.24;101605.44;5053482;28;46064;-61
2021/09/29 13:46:44;;;;;;;;;0.25;0.00;;;;;17.71;44.07;101608.09;5054816;28;45312;-61
2021/09/29 13:49:10;;;;;;;;;0.00;0.00;;;;;17.70;44.03;101614.41;5055435;28;45332;-60
2021/09/29 13:51:36;;;;;;;;;0.00;0.00;;;;;17.69;43.75;101610.94;5054208;28;70757;-60
2021/09/29 13:54:09;;;;;;;;;0.00;0.00;;;;;17.68;43.70;101614.56;5054708;28;45881;-61